Time;durP1;ratioP1;P1;durP2;ratioP2;P2;SDS_P1;SDS_P2;PMS_P1;PMS_P2;Temp;Humidity;BMP_temperature;BMP_pressure;BME280_temperature;BME280_humidity;BME280_pressure;Samples;Min_cycle;Max_cycle;Signal;HPM_P1;HPM_P2
2022/07/06 00:01:42;;;;;;;3.55;3.25;;;14.70;99.90;;;;;;5016412;28;20103;-54
2022/07/06 00:04:08;;;;;;;7.57;3.78;;;14.70;99.90;;;;;;5014854;28;20045;-53
2022/07/06 00:06:35;;;;;;;5.07;3.47;;;14.70;99.90;;;;;;5017305;28;20053;-55
2022/07/06 00:09:04;;;;;;;4.15;3.63;;;14.70;99.90;;;;;;5017060;28;20056;-54
2022/07/06 00:11:31;;;;;;;4.22;3.50;;;14.60;99.90;;;;;;5017387;28;20117;-55
2022/07/06 00:13:58;;;;;;;9.20;3.90;;;14.70;99.90;;;;;;5015398;28;20068;-55
2022/07/06 00:16:25;;;;;;;11.88;4.18;;;14.60;99.90;;;;;;5017318;28;21050;-55
2022/07/06 00:18:52;;;;;;;4.78;4.03;;;14.50;99.90;;;;;;5016139;28;20045;-53
2022/07/06 00:21:19;;;;;;;;;;;14.50;99.90;;;;;;5017362;28;20046;-54
2022/07/06 00:23:45;;;;;;;5.40;4.10;;;14.40;99.90;;;;;;5015022;28;20527;-54
2022/07/06 00:26:13;;;;;;;;;;;14.40;99.90;;;;;;5016844;28;20075;-54
2022/07/06 00:28:39;;;;;;;6.33;3.80;;;14.40;99.90;;;;;;5014901;28;19921;-55
2022/07/06 00:31:06;;;;;;;7.05;3.85;;;14.40;99.90;;;;;;5015029;28;20053;-55
2022/07/06 00:33:33;;;;;;;8.20;4.07;;;14.40;99.90;;;;;;5016670;28;20069;-54
2022/07/06 00:36:00;;;;;;;;;;;14.30;99.90;;;;;;5016606;28;20037;-54
2022/07/06 00:38:27;;;;;;;4.07;3.70;;;14.20;99.90;;;;;;5016468;28;19925;-53
2022/07/06 00:40:54;;;;;;;7.35;3.42;;;14.30;99.90;;;;;;5014599;28;20514;-54
2022/07/06 00:43:21;;;;;;;3.97;3.63;;;14.20;99.90;;;;;;5015405;28;20272;-55
2022/07/06 00:45:48;;;;;;;4.10;3.08;;;14.20;99.90;;;;;;5016235;28;20041;-55
2022/07/06 00:48:14;;;;;;;;;;;14.30;99.90;;;;;;5016268;28;20115;-55
2022/07/06 00:50:41;;;;;;;5.10;3.53;;;14.30;99.90;;;;;;5015256;28;20561;-52
2022/07/06 00:53:09;;;;;;;4.05;2.97;;;14.30;99.90;;;;;;5014856;28;20920;-54
2022/07/06 00:55:41;;;;;;;3.88;3.30;;;14.30;99.90;;;;;;5011965;28;20037;-55
2022/07/06 00:58:09;;;;;;;5.35;3.03;;;14.30;99.90;;;;;;5015940;28;20432;-55
2022/07/06 01:00:36;;;;;;;4.05;3.42;;;14.30;99.90;;;;;;5016346;28;20574;-53
2022/07/06 01:03:03;;;;;;;6.03;3.00;;;14.30;99.90;;;;;;5013931;28;20050;-54
2022/07/06 01:05:30;;;;;;;5.10;3.47;;;14.30;99.90;;;;;;5016338;28;20037;-54
2022/07/06 01:07:57;;;;;;;3.88;3.20;;;14.30;99.90;;;;;;5016164;28;20037;-53
2022/07/06 01:10:24;;;;;;;3.58;3.05;;;14.30;99.90;;;;;;5013611;28;20073;-54
2022/07/06 01:12:51;;;;;;;;;;;14.30;99.90;;;;;;5016168;28;20120;-54
2022/07/06 01:15:20;;;;;;;8.25;3.72;;;14.30;99.90;;;;;;5015147;28;19932;-52
2022/07/06 01:17:48;;;;;;;5.35;3.78;;;14.30;99.90;;;;;;5014516;28;20041;-53
2022/07/06 01:20:19;;;;;;;5.80;4.40;;;14.20;99.90;;;;;;4996827;28;20551;-54
2022/07/06 01:22:48;;;;;;;7.38;3.20;;;14.20;99.90;;;;;;5015760;28;20527;-55
2022/07/06 01:25:15;;;;;;;8.02;3.78;;;14.20;99.90;;;;;;5013165;28;20041;-54
2022/07/06 01:27:42;;;;;;;7.28;3.80;;;14.10;99.90;;;;;;5013858;28;20899;-53
2022/07/06 01:30:11;;;;;;;3.72;3.40;;;14.20;99.90;;;;;;5015165;28;20072;-52
2022/07/06 01:32:41;;;;;;;4.75;2.97;;;14.20;99.90;;;;;;5012759;28;20045;-53
2022/07/06 01:35:10;;;;;;;4.07;3.08;;;14.20;99.90;;;;;;5015297;28;20041;-54
2022/07/06 01:37:37;;;;;;;11.93;3.72;;;14.20;99.90;;;;;;5013581;28;20157;-54
2022/07/06 01:40:06;;;;;;;5.03;3.20;;;14.20;99.90;;;;;;5015172;28;20049;-51
2022/07/06 01:42:34;;;;;;;5.55;2.95;;;14.10;99.90;;;;;;5013184;28;20080;-54
2022/07/06 01:45:02;;;;;;;3.13;2.83;;;14.10;99.90;;;;;;5013614;28;20182;-54
2022/07/06 01:47:29;;;;;;;2.75;2.55;;;14.10;99.90;;;;;;5015588;28;20052;-54
2022/07/06 01:49:59;;;;;;;;;;;14.10;99.90;;;;;;5013891;28;20067;-55
2022/07/06 01:52:27;;;;;;;5.43;3.03;;;14.00;99.90;;;;;;5013696;28;19927;-53
2022/07/06 01:54:57;;;;;;;5.90;2.08;;;14.00;99.90;;;;;;5011666;28;20045;-53
2022/07/06 01:57:24;;;;;;;7.32;3.20;;;14.00;99.90;;;;;;5014367;28;20542;-52
2022/07/06 01:59:53;;;;;;;3.95;2.90;;;13.90;99.90;;;;;;5013138;28;20076;-54
2022/07/06 02:02:20;;;;;;;5.88;3.17;;;13.90;99.90;;;;;;5013360;28;20081;-54
2022/07/06 02:04:47;;;;;;;;;;;13.90;99.90;;;;;;5013511;28;20045;-54
2022/07/06 02:07:14;;;;;;;5.28;3.50;;;13.90;99.90;;;;;;5015476;28;19925;-53
2022/07/06 02:09:40;;;;;;;;;;;13.90;99.90;;;;;;5015763;28;20141;-54
2022/07/06 02:12:07;;;;;;;4.70;2.45;;;13.80;99.90;;;;;;5012859;28;19931;-53
2022/07/06 02:14:35;;;;;;;5.47;2.47;;;13.80;99.90;;;;;;5012865;28;20049;-53
2022/07/06 02:17:02;;;;;;;;;;;13.80;99.90;;;;;;5013907;28;20045;-53
2022/07/06 02:19:29;;;;;;;3.05;2.83;;;13.80;99.90;;;;;;5013077;28;19955;-55
2022/07/06 02:21:55;;;;;;;;;;;13.80;99.90;;;;;;5015373;28;20900;-54
2022/07/06 02:24:22;;;;;;;4.82;2.78;;;13.80;99.90;;;;;;5015249;28;19925;-53
2022/07/06 02:26:49;;;;;;;;;;;13.70;99.90;;;;;;5013579;28;20045;-55
2022/07/06 02:29:16;;;;;;;4.93;3.00;;;13.70;99.90;;;;;;5012782;28;19921;-53
2022/07/06 02:31:44;;;;;;;3.67;2.92;;;13.60;99.90;;;;;;5013001;28;20045;-55
2022/07/06 02:34:12;;;;;;;5.18;2.97;;;13.60;99.90;;;;;;5010975;28;20798;-52
2022/07/06 02:36:39;;;;;;;;;;;13.50;99.90;;;;;;5016536;28;20645;-54
2022/07/06 02:39:05;;;;;;;5.53;2.67;;;13.50;99.90;;;;;;5016965;28;19956;-56
2022/07/06 02:41:32;;;;;;;;;;;13.40;99.90;;;;;;5017755;28;20038;-54
2022/07/06 02:43:59;;;;;;;4.95;2.85;;;13.40;99.90;;;;;;5017701;28;19921;-53
2022/07/06 02:46:26;;;;;;;10.35;3.55;;;13.40;99.90;;;;;;5017339;28;20052;-54
2022/07/06 02:48:53;;;;;;;5.78;2.92;;;13.40;99.90;;;;;;5016039;28;20152;-54
2022/07/06 02:51:20;;;;;;;5.68;2.83;;;13.30;99.90;;;;;;5016567;28;20053;-52
2022/07/06 02:53:47;;;;;;;;;;;13.40;99.90;;;;;;5019386;28;20069;-53
2022/07/06 02:56:14;;;;;;;5.35;3.03;;;13.30;99.90;;;;;;5012749;28;19932;-53
2022/07/06 02:58:40;;;;;;;;;;;13.30;99.90;;;;;;5014009;28;20053;-55
2022/07/06 03:01:07;;;;;;;4.97;2.97;;;13.30;99.90;;;;;;5007364;28;19925;-56
2022/07/06 03:03:35;;;;;;;6.72;3.28;;;13.20;99.90;;;;;;4996506;28;20065;-54
2022/07/06 03:06:04;;;;;;;3.95;2.90;;;13.20;99.90;;;;;;4997129;28;20073;-55
2022/07/06 03:08:34;;;;;;;3.47;2.88;;;13.10;99.90;;;;;;4997117;28;20042;-55
2022/07/06 03:11:01;;;;;;;8.73;3.60;;;13.10;99.90;;;;;;4996785;28;20049;-54
2022/07/06 03:13:29;;;;;;;6.90;3.97;;;13.10;99.90;;;;;;4996335;28;20053;-55
2022/07/06 03:15:56;;;;;;;3.83;3.30;;;13.10;99.90;;;;;;4998385;28;20091;-56
2022/07/06 03:18:23;;;;;;;6.00;3.55;;;13.00;99.90;;;;;;4992915;28;20842;-58
2022/07/06 03:20:52;;;;;;;4.22;3.20;;;13.00;99.90;;;;;;4999961;28;20140;-54
2022/07/06 03:23:20;;;;;;;8.02;3.10;;;13.00;99.90;;;;;;5015969;28;20045;-55
2022/07/06 03:25:47;;;;;;;;;;;12.90;99.90;;;;;;5017015;28;20107;-56
2022/07/06 03:28:14;;;;;;;7.43;4.03;;;12.90;99.90;;;;;;4999481;28;19928;-56
2022/07/06 03:30:42;;;;;;;6.93;3.33;;;12.90;99.90;;;;;;5016285;28;20057;-54
2022/07/06 03:33:09;;;;;;;5.38;3.17;;;12.90;99.90;;;;;;5016056;28;20528;-53
2022/07/06 03:35:36;;;;;;;4.95;3.47;;;12.90;99.90;;;;;;5015751;28;20136;-54
2022/07/06 03:38:05;;;;;;;5.28;2.90;;;12.80;99.90;;;;;;5016204;28;20041;-54
2022/07/06 03:40:34;;;;;;;10.93;3.63;;;12.80;99.90;;;;;;5015369;28;20073;-56
2022/07/06 03:43:01;;;;;;;8.93;3.30;;;12.80;99.90;;;;;;5016063;28;20056;-56
2022/07/06 03:45:31;;;;;;;4.75;3.63;;;12.80;99.90;;;;;;5015546;28;20080;-56
2022/07/06 03:48:00;;;;;;;4.55;2.92;;;12.90;99.90;;;;;;5017401;28;20422;-55
2022/07/06 03:50:29;;;;;;;7.00;3.20;;;12.80;99.90;;;;;;5015807;28;20056;-55
2022/07/06 03:52:57;;;;;;;8.57;3.05;;;12.80;99.90;;;;;;5015743;28;20045;-53
2022/07/06 03:55:24;;;;;;;6.72;3.30;;;12.90;99.90;;;;;;5015953;28;20095;-53
2022/07/06 03:57:57;;;;;;;5.30;3.15;;;12.90;99.90;;;;;;5013877;28;20135;-55
2022/07/06 04:00:32;;;;;;;7.13;3.30;;;12.90;99.90;;;;;;5015717;28;20056;-56
2022/07/06 04:03:03;;;;;;;5.40;3.00;;;12.90;99.90;;;;;;5015237;28;20044;-54
2022/07/06 04:05:35;;;;;;;3.78;3.38;;;13.00;99.90;;;;;;5015718;28;20053;-55
2022/07/06 04:08:02;;;;;;;;;;;13.00;99.90;;;;;;5016226;28;20053;-50
2022/07/06 04:10:36;;;;;;;9.25;3.50;;;13.00;99.90;;;;;;5015094;28;19925;-52
2022/07/06 04:13:03;;;;;;;6.38;3.80;;;13.10;99.90;;;;;;5014875;28;20053;-50
2022/07/06 04:15:30;;;;;;;4.28;3.38;;;13.10;99.90;;;;;;5015785;28;20056;-51
2022/07/06 04:17:57;;;;;;;4.43;3.17;;;13.20;99.90;;;;;;5015690;28;20048;-50
2022/07/06 04:20:32;;;;;;;3.97;2.72;;;13.20;99.90;;;;;;5016225;28;20045;-52
2022/07/06 04:23:00;;;;;;;3.10;2.78;;;13.20;99.90;;;;;;5016215;28;20072;-49
2022/07/06 04:25:27;;;;;;;7.53;4.63;;;13.30;99.90;;;;;;5017312;28;20046;-53
2022/07/06 04:27:58;;;;;;;9.20;3.22;;;13.30;99.90;;;;;;5016399;28;20056;-51
2022/07/06 04:30:25;;;;;;;3.17;2.53;;;13.40;99.90;;;;;;5014538;28;20076;-53
2022/07/06 04:32:53;;;;;;;4.43;3.13;;;13.40;99.90;;;;;;5014640;28;20076;-50
2022/07/06 04:35:20;;;;;;;;;;;13.50;99.90;;;;;;5015896;28;20136;-49
2022/07/06 04:37:50;;;;;;;5.03;3.42;;;13.60;99.90;;;;;;5015064;28;20345;-52
2022/07/06 04:40:19;;;;;;;5.10;2.95;;;13.60;99.90;;;;;;5014250;28;20052;-51
2022/07/06 04:42:49;;;;;;;4.88;3.30;;;13.70;99.90;;;;;;5014330;28;20065;-49
2022/07/06 04:45:16;;;;;;;4.20;3.22;;;13.70;99.90;;;;;;4995153;28;20133;-50
2022/07/06 04:47:45;;;;;;;4.35;3.35;;;13.80;99.90;;;;;;5000460;28;20132;-48
2022/07/06 04:50:13;;;;;;;6.13;3.20;;;13.80;99.90;;;;;;5014370;28;20037;-50
2022/07/06 04:52:41;;;;;;;4.47;3.03;;;13.90;99.90;;;;;;5015265;28;20049;-52
2022/07/06 04:55:10;;;;;;;6.57;3.17;;;13.90;99.90;;;;;;5014546;28;20141;-51
2022/07/06 04:57:37;;;;;;;3.58;2.72;;;14.00;99.90;;;;;;5011513;28;20169;-53
2022/07/06 05:00:05;;;;;;;4.45;2.97;;;14.00;99.90;;;;;;5012163;28;20049;-49
2022/07/06 05:02:32;;;;;;;4.68;2.97;;;14.10;99.90;;;;;;5014338;28;20043;-52
2022/07/06 05:04:59;;;;;;;12.38;3.17;;;14.10;99.90;;;;;;5015322;28;20042;-51
2022/07/06 05:07:30;;;;;;;4.22;2.50;;;14.20;99.90;;;;;;5014550;28;20153;-52
2022/07/06 05:09:58;;;;;;;4.90;2.80;;;14.20;99.90;;;;;;5013988;28;20045;-52
2022/07/06 05:12:24;;;;;;;;;;;14.30;99.90;;;;;;5014731;28;20054;-52
2022/07/06 05:14:51;;;;;;;2.72;2.30;;;14.30;99.90;;;;;;5012302;28;20383;-50
2022/07/06 05:17:20;;;;;;;5.90;3.00;;;14.40;99.90;;;;;;5014406;28;20038;-49
2022/07/06 05:19:56;;;;;;;3.47;3.03;;;14.40;99.90;;;;;;5014083;28;20076;-51
2022/07/06 05:22:24;;;;;;;6.07;2.70;;;14.50;99.90;;;;;;5014083;28;21136;-54
2022/07/06 05:24:51;;;;;;;6.22;2.90;;;14.60;99.90;;;;;;5014208;28;20045;-54
2022/07/06 05:27:19;;;;;;;7.10;3.08;;;14.70;99.90;;;;;;5013814;28;20152;-54
2022/07/06 05:29:47;;;;;;;6.03;2.88;;;14.70;99.90;;;;;;5014360;28;20115;-49
2022/07/06 05:32:16;;;;;;;11.02;2.95;;;14.80;99.90;;;;;;5013127;28;20527;-53
2022/07/06 05:34:43;;;;;;;4.60;2.70;;;14.90;99.90;;;;;;5014216;28;20527;-52
2022/07/06 05:37:11;;;;;;;4.60;2.75;;;15.00;99.90;;;;;;5012843;28;20517;-53
2022/07/06 05:39:38;;;;;;;7.10;2.85;;;15.10;99.90;;;;;;5014000;28;20045;-54
2022/07/06 05:42:08;;;;;;;7.88;2.90;;;15.20;99.90;;;;;;5013335;28;20056;-54
2022/07/06 05:44:36;;;;;;;3.40;3.10;;;15.30;99.90;;;;;;5012949;28;20042;-51
2022/07/06 05:52:36;;;;;;;4.20;3.07;;;15.50;99.90;;;;;;5015279;28;20069;-54
2022/07/06 05:55:04;;;;;;;9.20;2.83;;;15.60;99.90;;;;;;5013025;28;20128;-54
2022/07/06 05:57:31;;;;;;;4.80;2.70;;;15.70;99.90;;;;;;4997716;28;20057;-51
2022/07/06 05:59:59;;;;;;;3.10;2.80;;;15.70;99.90;;;;;;5010650;28;20041;-54
2022/07/06 06:02:35;;;;;;;8.02;2.75;;;15.80;99.90;;;;;;5013124;28;20049;-52
2022/07/06 06:05:03;;;;;;;4.07;2.90;;;15.90;99.90;;;;;;5013123;28;20769;-68
2022/07/06 06:07:30;;;;;;;3.28;2.70;;;16.10;99.90;;;;;;5013568;28;20823;-68
2022/07/06 06:09:57;;;;;;;7.90;3.60;;;16.20;99.90;;;;;;5013939;28;20470;-68
2022/07/06 06:12:24;;;;;;;;;;;16.20;99.90;;;;;;5015458;28;20080;-67
2022/07/06 06:14:51;;;;;;;3.53;3.20;;;16.30;99.90;;;;;;5012813;28;19951;-68
2022/07/06 06:17:18;;;;;;;5.75;2.80;;;16.40;99.90;;;;;;5013107;28;20044;-68
2022/07/06 06:19:44;;;;;;;;;;;16.50;99.90;;;;;;5015414;28;20037;-66
2022/07/06 06:22:11;;;;;;;5.70;3.00;;;16.60;99.90;;;;;;5013702;28;19921;-66
2022/07/06 06:24:38;;;;;;;4.93;2.72;;;16.70;99.90;;;;;;5014943;28;20128;-67
2022/07/06 06:27:05;;;;;;;;;;;16.70;99.90;;;;;;5013978;28;20045;-70
2022/07/06 06:29:32;;;;;;;3.13;2.45;;;16.80;99.90;;;;;;5012987;28;19932;-69
2022/07/06 06:31:58;;;;;;;4.70;2.72;;;16.90;99.90;;;;;;5013033;28;20659;-69
2022/07/06 06:34:25;;;;;;;6.80;2.67;;;17.00;99.90;;;;;;5012900;28;20057;-67
2022/07/06 06:36:52;;;;;;;7.03;2.50;;;17.10;99.90;;;;;;4997108;28;20073;-70
2022/07/06 06:39:19;;;;;;;7.15;2.85;;;17.20;99.90;;;;;;5014047;28;20045;-67
2022/07/06 06:41:46;;;;;;;;;;;17.30;99.90;;;;;;5013682;28;20045;-67
2022/07/06 06:44:14;;;;;;;3.17;2.63;;;17.40;99.90;;;;;;5013400;28;19931;-68
2022/07/06 06:46:42;;;;;;;2.20;2.00;;;17.50;99.90;;;;;;5013492;28;20049;-69
2022/07/06 06:49:09;;;;;;;3.70;2.13;;;17.60;99.90;;;;;;5014383;28;20069;-70
2022/07/06 06:51:38;;;;;;;5.20;2.97;;;17.70;99.90;;;;;;5012493;28;20046;-69
2022/07/06 06:54:05;;;;;;;5.07;2.97;;;17.90;99.90;;;;;;5014835;28;20551;-68
2022/07/06 06:56:32;;;;;;;3.45;2.38;;;18.00;99.90;;;;;;5013902;28;20038;-70
2022/07/06 06:59:01;;;;;;;4.43;2.20;;;18.10;99.90;;;;;;5014276;28;20096;-69
2022/07/06 07:01:44;;;;;;;8.95;2.55;;;18.10;99.90;;;;;;5010765;28;20045;-70
2022/07/06 07:04:11;;;;;;;5.60;2.40;;;18.20;99.90;;;;;;5014370;28;20559;-69
2022/07/06 07:06:39;;;;;;;3.88;2.22;;;18.30;99.90;;;;;;5013726;28;20099;-68
2022/07/06 07:09:06;;;;;;;2.15;1.95;;;18.40;99.90;;;;;;5014728;28;20053;-68
2022/07/06 07:11:33;;;;;;;7.68;2.13;;;18.50;99.90;;;;;;5014151;28;20049;-67
2022/07/06 07:14:01;;;;;;;8.05;2.30;;;18.60;99.90;;;;;;5013695;28;20136;-69
2022/07/06 07:16:28;;;;;;;4.28;2.00;;;18.70;99.90;;;;;;5012810;28;20041;-68
2022/07/06 07:18:54;;;;;;;4.80;1.90;;;18.80;99.90;;;;;;5013258;28;20123;-69
2022/07/06 07:21:21;;;;;;;6.50;2.30;;;18.90;99.90;;;;;;5013911;28;20045;-67
2022/07/06 07:23:50;;;;;;;7.60;1.88;;;19.00;99.90;;;;;;5016547;28;20107;-69
2022/07/06 07:26:17;;;;;;;6.40;2.35;;;19.00;99.90;;;;;;5017587;28;20065;-67
2022/07/06 07:28:44;;;;;;;6.22;2.38;;;19.00;99.90;;;;;;5016867;28;20045;-67
2022/07/06 07:31:10;;;;;;;2.83;1.90;;;19.10;99.90;;;;;;4999626;28;20045;-65
2022/07/06 07:33:38;;;;;;;2.78;2.08;;;19.00;99.90;;;;;;5017600;28;20049;-64
2022/07/06 07:36:05;;;;;;;7.38;2.35;;;19.10;99.90;;;;;;4998933;28;20038;-64
2022/07/06 07:38:32;;;;;;;3.75;2.35;;;19.20;99.90;;;;;;5018037;28;20045;-64
2022/07/06 07:40:59;;;;;;;5.03;2.35;;;19.20;99.90;;;;;;5015826;28;20152;-64
2022/07/06 07:43:26;;;;;;;6.75;2.67;;;19.30;99.90;;;;;;5015873;28;20045;-64
2022/07/06 07:45:53;;;;;;;4.07;2.15;;;19.30;99.90;;;;;;5015890;28;20570;-69
2022/07/06 07:48:20;;;;;;;2.22;2.03;;;19.40;99.90;;;;;;5016023;28;20052;-70
2022/07/06 07:50:47;;;;;;;10.23;3.42;;;19.50;99.90;;;;;;5016911;28;20061;-65
2022/07/06 07:53:14;;;;;;;5.80;2.40;;;19.60;99.90;;;;;;5017075;28;20045;-66
2022/07/06 07:55:41;;;;;;;11.80;2.80;;;19.70;99.90;;;;;;5015561;28;20044;-67
2022/07/06 07:58:09;;;;;;;3.33;2.15;;;19.80;99.90;;;;;;5015331;28;20046;-64
2022/07/06 08:00:36;;;;;;;3.60;2.53;;;19.90;99.90;;;;;;5013505;28;20033;-69
2022/07/06 08:03:03;;;;;;;6.18;2.30;;;20.10;99.90;;;;;;5010092;28;20045;-65
2022/07/06 08:05:30;;;;;;;7.25;2.17;;;20.20;99.90;;;;;;5015749;28;20062;-68
2022/07/06 08:07:57;;;;;;;3.28;2.30;;;20.30;99.90;;;;;;5015403;28;20045;-64
2022/07/06 08:10:24;;;;;;;5.97;2.35;;;20.40;99.90;;;;;;5016272;28;20064;-65
2022/07/06 08:12:51;;;;;;;5.82;2.47;;;20.50;99.90;;;;;;5016850;28;20743;-65
2022/07/06 08:15:18;;;;;;;6.15;2.15;;;20.60;99.90;;;;;;4999269;28;20107;-66
2022/07/06 08:17:45;;;;;;;4.30;2.38;;;20.70;99.90;;;;;;5016538;28;20045;-66
2022/07/06 08:20:12;;;;;;;6.00;2.33;;;20.80;99.90;;;;;;5015965;28;20095;-64
2022/07/06 08:22:39;;;;;;;3.42;2.00;;;20.80;99.90;;;;;;5016591;28;20050;-65
2022/07/06 08:25:07;;;;;;;4.43;2.58;;;21.00;99.90;;;;;;5016101;28;20492;-65
2022/07/06 08:27:34;;;;;;;10.93;2.70;;;21.10;99.90;;;;;;5016555;28;20077;-65
2022/07/06 08:30:02;;;;;;;6.38;2.45;;;21.30;99.90;;;;;;5016416;28;20140;-66
2022/07/06 08:32:29;;;;;;;5.30;2.25;;;21.50;99.90;;;;;;5015003;28;20499;-64
2022/07/06 08:35:16;;;;;;;6.10;2.67;;;21.70;99.90;;;;;;5015155;28;20056;-63
2022/07/06 08:37:43;;;;;;;7.03;2.90;;;22.00;99.90;;;;;;5015218;28;20047;-64
2022/07/06 08:40:10;;;;;;;8.77;2.72;;;22.30;99.90;;;;;;5014572;28;20033;-68
2022/07/06 08:42:37;;;;;;;4.13;2.33;;;22.60;99.90;;;;;;5014407;28;20172;-67
2022/07/06 08:45:06;;;;;;;9.55;3.30;;;22.90;99.90;;;;;;5014728;28;20119;-67
2022/07/06 08:47:36;;;;;;;7.78;2.92;;;23.10;99.90;;;;;;5016302;28;20052;-64
2022/07/06 08:50:05;;;;;;;6.18;2.90;;;23.30;99.90;;;;;;5015992;28;20049;-65
2022/07/06 08:52:32;;;;;;;5.93;2.78;;;23.40;99.90;;;;;;5016109;28;20050;-64
2022/07/06 08:55:00;;;;;;;12.70;3.63;;;23.50;99.90;;;;;;5014821;28;20080;-65
2022/07/06 08:57:27;;;;;;;4.05;2.30;;;23.70;99.90;;;;;;5016519;28;20120;-65
2022/07/06 08:59:54;;;;;;;7.65;2.65;;;23.80;99.90;;;;;;5015481;28;20048;-67
2022/07/06 09:02:25;;;;;;;4.43;2.83;;;23.90;99.90;;;;;;4996508;28;20045;-65
2022/07/06 09:04:56;;;;;;;7.85;2.50;;;24.00;99.90;;;;;;5013526;28;20048;-67
2022/07/06 09:07:27;;;;;;;5.95;2.60;;;24.00;98.80;;;;;;5014445;28;20041;-66
2022/07/06 09:10:14;;;;;;;8.40;2.67;;;24.00;97.70;;;;;;5013509;28;20049;-65
2022/07/06 09:12:41;;;;;;;11.00;2.80;;;24.10;99.90;;;;;;5014202;28;20539;-67
2022/07/06 09:15:08;;;;;;;4.32;2.30;;;24.30;99.90;;;;;;5015150;28;20053;-65
2022/07/06 09:17:39;;;;;;;7.32;2.63;;;24.60;99.90;;;;;;5016112;28;20515;-65
2022/07/06 09:20:11;;;;;;;7.70;2.65;;;24.80;99.90;;;;;;5015164;28;20459;-64
2022/07/06 09:22:38;;;;;;;7.80;2.63;;;24.90;99.90;;;;;;5015647;28;20050;-63
2022/07/06 09:25:09;;;;;;;9.20;3.45;;;25.10;99.90;;;;;;5015043;28;20045;-64
2022/07/06 09:27:38;;;;;;;4.93;2.40;;;25.10;99.90;;;;;;5013694;28;20041;-64
2022/07/06 09:30:07;;;;;;;5.95;2.40;;;25.20;99.90;;;;;;5015401;28;20109;-64
2022/07/06 09:32:43;;;;;;;4.93;2.30;;;25.40;99.90;;;;;;5014449;28;20042;-64
2022/07/06 09:35:26;;;;;;;8.48;2.88;;;25.40;95.30;;;;;;5015501;28;20069;-63
2022/07/06 09:38:14;;;;;;;3.97;2.08;;;25.40;82.10;;;;;;5013354;28;20056;-63
2022/07/06 09:40:42;;;;;;;7.53;2.05;;;25.30;75.20;;;;;;5015418;28;20080;-64
2022/07/06 09:43:22;;;;;;;5.10;1.98;;;25.20;71.70;;;;;;5013966;28;20547;-64
2022/07/06 09:45:52;;;;;;;8.70;2.42;;;25.00;68.90;;;;;;4980969;28;20073;-63
2022/07/06 09:48:21;;;;;;;3.50;1.75;;;24.80;68.30;;;;;;5014347;28;20075;-63
2022/07/06 09:50:54;;;;;;;2.03;1.30;;;24.70;70.30;;;;;;5014705;28;20049;-63
2022/07/06 09:53:26;;;;;;;3.67;1.83;;;24.70;72.50;;;;;;5014326;28;20053;-63
2022/07/06 09:55:56;;;;;;;3.85;1.70;;;24.60;71.20;;;;;;5013721;28;20050;-63
2022/07/06 09:58:23;;;;;;;4.43;1.73;;;24.60;77.10;;;;;;5013974;28;20041;-63
2022/07/06 10:01:10;;;;;;;7.35;1.90;;;24.70;78.70;;;;;;5012220;28;20069;-64
2022/07/06 10:03:38;;;;;;;7.18;1.40;;;25.00;83.10;;;;;;4994356;28;20129;-63
2022/07/06 10:06:05;;;;;;;2.75;1.63;;;25.20;80.90;;;;;;5013738;28;20495;-63
2022/07/06 10:08:33;;;;;;;3.30;1.35;;;25.50;76.50;;;;;;5012919;28;20055;-63
2022/07/06 10:11:01;;;;;;;4.32;1.73;;;25.70;69.30;;;;;;5014670;28;20045;-63
2022/07/06 10:13:30;;;;;;;10.10;1.73;;;25.80;63.70;;;;;;5015405;28;20064;-63
2022/07/06 10:15:58;;;;;;;2.58;1.83;;;26.00;68.80;;;;;;5012607;28;20088;-63
2022/07/06 10:18:25;;;;;;;2.92;1.67;;;26.30;62.40;;;;;;5014146;28;20464;-62
2022/07/06 10:20:53;;;;;;;5.60;1.60;;;26.50;64.90;;;;;;5013172;28;20053;-63
2022/07/06 10:23:21;;;;;;;3.72;1.52;;;26.80;64.60;;;;;;4996695;28;20119;-64
2022/07/06 10:25:49;;;;;;;3.85;1.60;;;27.00;61.70;;;;;;5013348;28;20053;-64
2022/07/06 10:28:18;;;;;;;4.88;1.42;;;27.10;64.00;;;;;;5012573;28;20499;-65
2022/07/06 10:30:46;;;;;;;3.72;1.75;;;27.10;63.40;;;;;;5015015;28;20041;-66
2022/07/06 10:33:15;;;;;;;2.47;1.80;;;27.20;60.60;;;;;;5011858;28;20518;-64
2022/07/06 10:35:43;;;;;;;4.63;1.80;;;27.30;60.80;;;;;;5013752;28;20045;-65
2022/07/06 10:38:10;;;;;;;3.38;1.77;;;27.30;60.20;;;;;;5011749;28;20038;-66
2022/07/06 10:43:44;;;;;;;2.42;1.40;;;27.40;58.60;;;;;;5014148;28;20107;-65
2022/07/06 10:46:13;;;;;;;;;;;27.40;57.50;;;;;;4978188;28;20046;-65
2022/07/06 10:48:44;;;;;;;5.20;1.63;;;27.40;57.80;;;;;;5007326;28;19921;-65
2022/07/06 10:51:13;;;;;;;2.08;1.33;;;27.40;54.40;;;;;;5014318;28;20545;-65
2022/07/06 10:53:40;;;;;;;4.60;1.52;;;27.40;55.00;;;;;;5014702;28;20072;-65
2022/07/06 10:56:09;;;;;;;5.07;1.40;;;27.50;55.00;;;;;;5013464;28;20641;-65
2022/07/06 10:58:37;;;;;;;2.17;1.60;;;27.50;49.20;;;;;;5015391;28;20033;-65
2022/07/06 11:01:05;;;;;;;4.53;1.80;;;27.40;48.80;;;;;;5015940;28;20936;-64
2022/07/06 11:03:35;;;;;;;4.55;1.58;;;27.40;47.80;;;;;;5015343;28;20507;-64
2022/07/06 11:06:07;;;;;;;1.77;1.35;;;27.20;47.30;;;;;;5016694;28;20129;-66
2022/07/06 11:08:47;;;;;;;2.90;1.13;;;27.10;50.00;;;;;;5015863;28;20132;-66
2022/07/06 11:11:20;;;;;;;2.88;1.60;;;27.10;56.00;;;;;;5018530;28;20069;-65
2022/07/06 11:13:58;;;;;;;5.15;1.85;;;27.20;53.30;;;;;;5019670;28;20071;-65
2022/07/06 13:14:32;;;;;;;4.07;1.60;;;27.60;48.60;;;;;;5083414;27;20630;-68
2022/07/06 13:16:59;;;;;;;6.63;1.70;;;28.00;53.40;;;;;;5060828;28;20050;-65
2022/07/06 13:19:27;;;;;;;4.72;1.48;;;28.30;52.10;;;;;;5049198;27;20043;-65
2022/07/06 13:21:54;;;;;;;4.32;1.60;;;28.40;51.30;;;;;;5063903;27;20039;-65
2022/07/06 13:24:21;;;;;;;1.60;1.42;;;28.30;50.60;;;;;;5067312;27;20035;-65
2022/07/06 13:26:48;;;;;;;1.70;1.60;;;28.10;50.80;;;;;;5066790;27;20035;-65
2022/07/06 13:29:15;;;;;;;2.15;1.70;;;28.10;51.50;;;;;;5086391;27;20553;-65
2022/07/06 13:31:42;;;;;;;2.80;1.60;;;28.20;48.90;;;;;;5062778;27;20042;-64
2022/07/06 13:34:09;;;;;;;2.53;1.45;;;28.10;47.90;;;;;;5082678;27;20553;-65
2022/07/06 13:36:37;;;;;;;3.60;1.85;;;28.00;47.70;;;;;;5045563;27;20811;-65
2022/07/06 13:39:05;;;;;;;7.70;2.20;;;28.10;48.50;;;;;;5063598;27;20728;-65
2022/07/06 13:41:33;;;;;;;2.50;1.60;;;28.20;51.40;;;;;;5067658;28;20112;-65
2022/07/06 13:44:01;;;;;;;11.30;2.50;;;28.40;48.10;;;;;;5064161;27;20045;-66
2022/07/06 13:46:30;;;;;;;3.42;1.40;;;28.50;46.90;;;;;;5048815;28;20047;-65
2022/07/06 13:48:58;;;;;;;7.90;1.63;;;28.60;50.40;;;;;;5062928;27;20036;-65
2022/07/06 13:51:26;;;;;;;4.60;1.42;;;28.70;50.10;;;;;;5046447;27;20051;-65
2022/07/06 13:53:54;;;;;;;2.22;1.65;;;28.60;46.30;;;;;;5045559;28;20125;-65
2022/07/06 13:56:21;;;;;;;3.72;1.40;;;28.60;47.80;;;;;;5047964;28;20569;-65
2022/07/06 13:58:48;;;;;;;2.70;1.77;;;28.50;45.60;;;;;;5067547;28;20128;-66
2022/07/06 14:01:15;;;;;;;2.67;1.85;;;28.50;45.70;;;;;;5062850;27;20288;-68
2022/07/06 14:03:51;;;;;;;3.60;1.55;;;28.40;47.90;;;;;;5065387;27;20138;-67
2022/07/06 14:06:19;;;;;;;4.03;1.70;;;28.50;49.10;;;;;;5039870;28;20425;-66
2022/07/06 14:08:46;;;;;;;5.93;1.55;;;28.60;47.20;;;;;;5085368;28;20035;-63
2022/07/06 14:11:13;;;;;;;5.90;1.80;;;28.70;48.80;;;;;;5081519;27;20039;-66
2022/07/06 14:13:41;;;;;;;2.85;1.58;;;28.80;48.10;;;;;;5055909;27;20043;-68
2022/07/06 14:16:09;;;;;;;2.10;1.58;;;28.90;49.30;;;;;;5032459;28;20301;-69
2022/07/06 14:18:36;;;;;;;4.80;1.35;;;28.90;44.50;;;;;;5029274;28;20071;-67
2022/07/06 14:21:03;;;;;;;2.08;1.67;;;28.70;44.10;;;;;;5033152;28;20524;-64
2022/07/06 14:23:31;;;;;;;6.35;1.98;;;28.70;43.30;;;;;;5014987;28;20036;-65
2022/07/06 14:25:58;;;;;;;1.45;1.30;;;28.60;43.40;;;;;;5033436;28;20289;-64
2022/07/06 14:28:25;;;;;;;7.63;1.55;;;28.60;42.60;;;;;;5037514;28;20546;-64
2022/07/06 14:30:52;;;;;;;3.38;1.65;;;28.60;44.60;;;;;;5034356;28;20044;-64
2022/07/06 14:33:20;;;;;;;5.88;1.95;;;28.50;44.00;;;;;;5037765;28;20055;-64
2022/07/06 14:35:50;;;;;;;1.48;1.30;;;28.50;43.50;;;;;;5014823;28;20213;-64
2022/07/06 14:38:19;;;;;;;3.70;1.63;;;28.50;44.10;;;;;;5037993;28;20044;-64
2022/07/06 14:40:48;;;;;;;7.50;1.80;;;28.50;43.40;;;;;;5037133;28;20047;-64
2022/07/06 14:43:16;;;;;;;1.90;1.40;;;28.50;42.40;;;;;;5015709;28;20063;-64
2022/07/06 14:45:47;;;;;;;5.93;2.42;;;28.40;43.10;;;;;;5035936;28;20557;-69
2022/07/06 14:48:14;;;;;;;4.53;1.45;;;28.40;46.70;;;;;;5033784;28;21175;-63
2022/07/06 14:50:41;;;;;;;2.53;1.38;;;28.50;47.90;;;;;;5036362;28;20040;-65
2022/07/06 14:53:08;;;;;;;7.45;2.17;;;28.50;45.60;;;;;;5034762;28;20601;-65
2022/07/06 14:55:35;;;;;;;3.22;1.88;;;28.50;47.10;;;;;;5034675;28;20044;-65
2022/07/06 14:58:03;;;;;;;1.98;1.40;;;28.50;46.60;;;;;;5036246;28;20779;-64
2022/07/06 15:00:30;;;;;;;2.33;1.42;;;28.40;46.80;;;;;;5014874;28;20588;-64
2022/07/06 15:02:57;;;;;;;3.75;0.90;;;28.40;45.60;;;;;;5016921;28;20874;-66
2022/07/06 15:05:24;;;;;;;1.92;1.38;;;28.30;44.40;;;;;;5033533;28;20044;-65